createdAt,value
2017-06-22T00:00:10.159Z,0
2017-06-22T00:01:10.185Z,0
2017-06-22T00:01:55.595Z,0
2017-06-22T00:02:55.616Z,0
2017-06-22T00:03:55.644Z,0
2017-06-22T00:05:10.287Z,0
2017-06-22T00:06:55.720Z,0
2017-06-22T00:07:55.743Z,0
2017-06-22T00:09:10.393Z,0
2017-06-22T00:09:55.795Z,0
2017-06-22T00:10:55.820Z,0
2017-06-22T00:11:55.875Z,0
2017-06-22T00:12:55.873Z,0
2017-06-22T00:14:10.515Z,0
2017-06-22T00:15:10.539Z,0
2017-06-22T00:16:10.564Z,0
2017-06-22T00:16:55.972Z,0
2017-06-22T00:17:55.996Z,0
2017-06-22T00:18:56.022Z,0
2017-06-22T00:20:10.665Z,0
2017-06-22T00:21:56.101Z,0
2017-06-22T00:22:56.131Z,0
2017-06-22T00:23:55.848Z,0
2017-06-22T00:24:56.175Z,0
2017-06-22T00:25:56.199Z,0
2017-06-22T00:26:56.226Z,0
2017-06-22T00:27:56.247Z,0
2017-06-22T00:28:55.973Z,0
2017-06-22T00:30:10.614Z,0
2017-06-22T00:30:56.326Z,0
2017-06-22T00:31:56.353Z,0
2017-06-22T00:32:56.378Z,0
2017-06-22T00:33:56.098Z,0
2017-06-22T00:34:56.123Z,0
2017-06-22T00:35:56.450Z,0
2017-06-22T00:36:56.479Z,0
2017-06-22T00:37:56.503Z,0
2017-06-22T00:38:56.229Z,0
2017-06-22T00:39:56.551Z,0
2017-06-22T00:40:56.575Z,0
2017-06-22T00:41:56.604Z,0
2017-06-22T00:42:56.625Z,0
2017-06-22T00:43:56.652Z,0
2017-06-22T00:44:56.674Z,0
2017-06-22T00:45:56.707Z,0
2017-06-22T00:46:56.730Z,0
2017-06-22T00:47:56.752Z,0
2017-06-22T00:48:56.775Z,0
2017-06-22T00:49:56.802Z,0
2017-06-22T00:50:56.826Z,0
2017-06-22T00:52:11.470Z,0
2017-06-22T00:52:56.877Z,0
2017-06-22T00:53:56.599Z,0
2017-06-22T00:54:56.928Z,0
2017-06-22T00:55:56.649Z,0
2017-06-22T00:56:56.979Z,0
2017-06-22T00:57:56.701Z,0
2017-06-22T00:58:57.028Z,0
2017-06-22T01:00:11.370Z,0
2017-06-22T01:00:57.078Z,0
2017-06-22T01:01:57.102Z,0
2017-06-22T01:02:57.147Z,0
2017-06-22T01:03:57.152Z,0
2017-06-22T01:04:57.482Z,0
2017-06-22T01:05:57.226Z,0
2017-06-22T01:06:57.230Z,0
2017-06-22T01:08:11.873Z,0
2017-06-22T01:10:57.328Z,0
2017-06-22T01:11:57.049Z,0
2017-06-22T01:12:57.073Z,0
2017-06-22T01:13:57.404Z,0
2017-06-22T01:14:57.427Z,0
2017-06-22T01:15:57.149Z,0
2017-06-22T01:16:57.481Z,0
2017-06-22T01:17:57.500Z,0
2017-06-22T01:20:12.172Z,0
2017-06-22T01:20:57.579Z,0
2017-06-22T01:24:12.269Z,0
2017-06-22T01:24:57.675Z,0
2017-06-22T01:25:57.700Z,0
2017-06-22T01:26:57.726Z,0
2017-06-22T01:27:57.750Z,0
2017-06-22T01:28:57.781Z,0
2017-06-22T01:29:57.802Z,0
2017-06-22T01:30:57.826Z,0
2017-06-22T01:31:57.850Z,0
2017-06-22T01:32:57.873Z,0
2017-06-22T01:33:57.597Z,0
2017-06-22T01:34:57.620Z,0
2017-06-22T01:35:57.948Z,0
2017-06-22T01:37:12.592Z,0
2017-06-22T01:38:57.719Z,0
2017-06-22T01:40:12.666Z,0
2017-06-22T01:40:58.078Z,0
2017-06-22T01:41:57.797Z,0
2017-06-22T01:42:57.819Z,0
2017-06-22T01:43:58.146Z,0
2017-06-22T01:45:12.795Z,0
2017-06-22T01:45:58.198Z,0
2017-06-22T01:46:58.224Z,0
2017-06-22T01:47:58.245Z,0
2017-06-22T01:49:12.890Z,0
2017-06-22T01:49:58.293Z,0
2017-06-22T01:51:12.938Z,0
2017-06-22T01:51:58.352Z,0
2017-06-22T01:53:58.091Z,0
2017-06-22T01:55:13.038Z,0
2017-06-22T01:55:58.445Z,0
2017-06-22T01:57:58.190Z,4
2017-06-22T01:58:58.517Z,4
2017-06-22T01:59:58.545Z,4
2017-06-22T02:00:58.566Z,0
2017-06-22T02:01:58.596Z,0
2017-06-22T02:02:58.618Z,4
2017-06-22T02:04:13.261Z,4
2017-06-22T02:04:58.666Z,4
2017-06-22T02:07:58.840Z,4
2017-06-22T02:08:58.766Z,8
2017-06-22T02:09:58.791Z,8
2017-06-22T02:10:58.864Z,8
2017-06-22T02:11:58.842Z,8
2017-06-22T02:12:58.862Z,12
2017-06-22T02:13:58.890Z,12
2017-06-22T02:14:58.608Z,12
2017-06-22T02:15:58.937Z,12
2017-06-22T02:16:58.969Z,20
2017-06-22T02:17:58.987Z,20
2017-06-22T02:18:58.706Z,20
2017-06-22T02:20:13.655Z,24
2017-06-22T02:20:59.060Z,24
2017-06-22T02:21:59.086Z,28
2017-06-22T02:23:13.726Z,32
2017-06-22T02:24:13.751Z,36
2017-06-22T02:24:59.167Z,40
2017-06-22T02:25:59.182Z,40
2017-06-22T02:27:13.825Z,48
2017-06-22T02:27:59.239Z,52
2017-06-22T02:29:59.283Z,64
2017-06-22T02:30:59.308Z,64
2017-06-22T02:31:59.334Z,72
2017-06-22T02:32:59.354Z,80
2017-06-22T02:33:59.385Z,84
2017-06-22T02:34:59.403Z,92
2017-06-22T02:35:59.429Z,100
2017-06-22T02:36:59.454Z,116
2017-06-22T02:38:14.122Z,132
2017-06-22T02:38:59.503Z,144
2017-06-22T02:39:59.528Z,156
2017-06-22T02:41:14.169Z,176
2017-06-22T02:43:14.216Z,208
2017-06-22T02:44:59.649Z,228
2017-06-22T02:45:59.676Z,236
2017-06-22T02:46:59.697Z,240
2017-06-22T02:47:59.719Z,252
2017-06-22T02:48:59.439Z,264
2017-06-22T02:49:59.767Z,276
2017-06-22T02:50:59.798Z,292
2017-06-22T02:51:59.822Z,304
2017-06-22T02:52:59.842Z,316
2017-06-22T02:53:59.866Z,332
2017-06-22T02:54:59.891Z,352
2017-06-22T02:56:14.531Z,380
2017-06-22T02:56:59.940Z,396
2017-06-22T02:57:59.963Z,420
2017-06-22T02:59:14.605Z,448
2017-06-22T03:00:00.011Z,464
2017-06-22T03:01:00.037Z,488
2017-06-22T03:02:00.061Z,508
2017-06-22T03:04:00.120Z,540
2017-06-22T03:05:00.136Z,556
2017-06-22T03:06:00.157Z,572
2017-06-22T03:07:00.184Z,588
2017-06-22T03:08:00.205Z,612
2017-06-22T03:09:00.235Z,632
2017-06-22T03:09:59.951Z,656
2017-06-22T03:11:00.279Z,684
2017-06-22T03:12:00.305Z,716
2017-06-22T03:13:00.328Z,744
2017-06-22T03:14:00.351Z,776
2017-06-22T03:15:14.994Z,816
2017-06-22T03:16:00.103Z,832
2017-06-22T03:17:00.427Z,868
2017-06-22T03:18:00.449Z,904
2017-06-22T03:20:00.498Z,964
2017-06-22T03:21:00.523Z,992
2017-06-22T03:22:00.547Z,1016
2017-06-22T03:23:15.190Z,1044
2017-06-22T03:24:00.595Z,1060
2017-06-22T03:25:00.619Z,1080
2017-06-22T03:26:00.645Z,1108
2017-06-22T03:27:15.285Z,1140
2017-06-22T03:29:00.724Z,1200
2017-06-22T03:30:15.412Z,1256
2017-06-22T03:31:00.764Z,1292
2017-06-22T03:32:00.793Z,1340
2017-06-22T03:34:00.837Z,1460
2017-06-22T03:35:00.861Z,1536
2017-06-22T03:36:00.884Z,1632
2017-06-22T03:37:00.913Z,1732
2017-06-22T03:38:15.572Z,1864
2017-06-22T03:39:00.958Z,1944
2017-06-22T03:40:15.599Z,2088
2017-06-22T03:41:15.627Z,2188
2017-06-22T03:42:01.030Z,2268
2017-06-22T03:44:01.078Z,2680
2017-06-22T03:45:01.103Z,2828
2017-06-22T03:46:01.127Z,2916
2017-06-22T03:47:01.150Z,3024
2017-06-22T03:48:01.176Z,3120
2017-06-22T03:49:01.201Z,3160
2017-06-22T03:50:01.224Z,3272
2017-06-22T03:51:01.251Z,3380
2017-06-22T03:52:01.272Z,3500
2017-06-22T03:53:01.310Z,3576
2017-06-22T03:54:01.322Z,3636
2017-06-22T03:55:01.344Z,3704
2017-06-22T03:56:15.989Z,4232
2017-06-22T03:57:01.394Z,4556
2017-06-22T03:58:01.118Z,4584
2017-06-22T04:00:01.467Z,4544
2017-06-22T04:01:01.491Z,5856
2017-06-22T04:02:16.132Z,5508
2017-06-22T04:03:01.539Z,4772
2017-06-22T04:04:01.569Z,4636
2017-06-22T04:05:01.288Z,4616
2017-06-22T04:06:01.612Z,4480
2017-06-22T04:07:01.639Z,4636
2017-06-22T04:08:01.666Z,4812
2017-06-22T04:09:01.688Z,7900
2017-06-22T04:10:01.717Z,18944
2017-06-22T04:11:01.736Z,31840
2017-06-22T04:12:01.758Z,41440
2017-06-22T04:13:16.407Z,47328
2017-06-22T04:14:01.810Z,48768
2017-06-22T04:18:16.529Z,52960
2017-06-22T04:20:01.963Z,52352
2017-06-22T04:21:01.993Z,50784
2017-06-22T04:22:02.045Z,51200
2017-06-22T04:23:02.065Z,52224
2017-06-22T04:24:02.088Z,54048
2017-06-22T04:25:02.098Z,52992
2017-06-22T04:26:02.129Z,57760
2017-06-22T04:27:02.174Z,57280
2017-06-22T04:28:02.182Z,58016
2017-06-22T04:29:02.213Z,59584
2017-06-22T04:30:02.243Z,60256
2017-06-22T04:31:16.914Z,63200
2017-06-22T04:32:02.301Z,63072
2017-06-22T04:33:02.330Z,63456
2017-06-22T04:34:17.002Z,62848
2017-06-22T04:35:02.391Z,61472
2017-06-22T04:36:02.422Z,62144
2017-06-22T04:37:02.459Z,62944
2017-06-22T04:38:02.483Z,64576
2017-06-22T04:39:02.511Z,64192
2017-06-22T04:40:02.544Z,63648
2017-06-22T04:41:02.577Z,65856
2017-06-22T04:42:02.603Z,67008
2017-06-22T04:43:02.635Z,65056
2017-06-22T04:44:02.669Z,65376
2017-06-22T04:45:02.701Z,65728
2017-06-22T04:46:02.744Z,69024
2017-06-22T04:49:02.833Z,61728
2017-06-22T04:50:17.480Z,63648
2017-06-22T04:51:02.905Z,63136
2017-06-22T04:52:02.927Z,62048
2017-06-22T04:53:02.960Z,67296
2017-06-22T04:54:02.993Z,67968
2017-06-22T04:55:03.028Z,65216
2017-06-22T04:56:03.063Z,72448
2017-06-22T04:57:03.093Z,71296
2017-06-22T04:58:03.135Z,73248
2017-06-22T04:59:17.783Z,75040
2017-06-22T05:01:03.235Z,74144
2017-06-22T05:02:03.266Z,70080
2017-06-22T05:03:03.301Z,61248
2017-06-22T05:04:03.342Z,68192
2017-06-22T05:05:17.989Z,72032
2017-06-22T05:07:03.135Z,70208
2017-06-22T05:08:03.475Z,71136
2017-06-22T05:09:03.510Z,71264
2017-06-22T05:10:03.237Z,72224
2017-06-22T05:11:03.322Z,70976
2017-06-22T05:13:03.342Z,70848
2017-06-22T05:14:03.376Z,71296
2017-06-22T05:15:03.418Z,72832
2017-06-22T05:16:03.145Z,61952
2017-06-22T05:17:03.484Z,64192
2017-06-22T05:18:03.519Z,69792
2017-06-22T05:19:03.860Z,75136
2017-06-22T05:20:03.593Z,71488
2017-06-22T05:21:03.930Z,69152
2017-06-22T05:22:03.974Z,71104
2017-06-22T05:23:04.003Z,75872
2017-06-22T05:24:04.038Z,79840
2017-06-22T05:25:03.771Z,80096
2017-06-22T05:26:04.112Z,80352
2017-06-22T05:27:04.146Z,81856
2017-06-22T05:28:03.879Z,79968
2017-06-22T05:29:04.217Z,85312
2017-06-22T05:30:04.251Z,86624
2017-06-22T05:31:03.987Z,87232
2017-06-22T05:32:04.019Z,86912
2017-06-22T05:33:04.107Z,88192
2017-06-22T05:34:18.711Z,86400
2017-06-22T05:35:04.449Z,85728
2017-06-22T05:36:04.167Z,87936
2017-06-22T05:37:19.126Z,88480
2017-06-22T05:38:04.551Z,86144
2017-06-22T05:41:04.670Z,83488
2017-06-22T05:42:04.689Z,86336
2017-06-22T05:43:04.728Z,86144
2017-06-22T05:44:04.762Z,86912
2017-06-22T05:45:04.809Z,87968
2017-06-22T05:46:04.839Z,87872
2017-06-22T05:47:19.494Z,89728
2017-06-22T05:48:04.914Z,87552
2017-06-22T05:51:05.034Z,73728
2017-06-22T05:52:05.058Z,84352
2017-06-22T05:53:19.719Z,91136
2017-06-22T05:54:04.832Z,88608
2017-06-22T05:55:05.175Z,88512
2017-06-22T05:56:05.211Z,88992
2017-06-22T05:57:05.247Z,89696
2017-06-22T05:58:04.985Z,88352
2017-06-22T05:59:05.324Z,89600
2017-06-22T06:00:05.362Z,91648
2017-06-22T06:01:05.450Z,90560
2017-06-22T06:02:05.436Z,90656
2017-06-22T06:03:05.480Z,90080
2017-06-22T06:04:05.513Z,93152
2017-06-22T06:05:20.174Z,91360
2017-06-22T06:06:20.467Z,87360
2017-06-22T06:07:05.630Z,82400
2017-06-22T06:08:05.665Z,84608
2017-06-22T06:09:20.325Z,81280
2017-06-22T06:10:05.492Z,79936
2017-06-22T06:11:05.782Z,86304
2017-06-22T06:12:05.520Z,88576
2017-06-22T06:13:05.858Z,88576
2017-06-22T06:14:05.900Z,88704
2017-06-22T06:15:05.684Z,88320
2017-06-22T06:16:05.673Z,87584
2017-06-22T06:17:06.016Z,87712
2017-06-22T06:18:06.051Z,87104
2017-06-22T06:19:05.791Z,89792
2017-06-22T06:20:06.129Z,89632
2017-06-22T06:21:06.170Z,90080
2017-06-22T06:22:20.881Z,91776
2017-06-22T06:23:06.251Z,91232
2017-06-22T06:25:20.946Z,89568
2017-06-22T06:26:06.067Z,87360
2017-06-22T06:27:06.406Z,83968
2017-06-22T06:28:06.443Z,81952
2017-06-22T06:29:06.485Z,81632
2017-06-22T06:30:06.526Z,70304
2017-06-22T06:31:06.610Z,56480
2017-06-22T06:32:06.602Z,60480
2017-06-22T06:33:06.340Z,77408
2017-06-22T06:34:06.382Z,74752
2017-06-22T06:35:21.340Z,52672
2017-06-22T06:36:06.454Z,24384
2017-06-22T06:37:06.497Z,46592
2017-06-22T06:38:06.535Z,81760
2017-06-22T06:39:06.590Z,81024
2017-06-22T06:40:21.230Z,78720
2017-06-22T06:41:06.980Z,74848
2017-06-22T06:42:06.690Z,73920
2017-06-22T06:43:06.728Z,77504
2017-06-22T06:44:07.069Z,76128
2017-06-22T06:45:07.110Z,75040
2017-06-22T06:46:07.146Z,78720
2017-06-22T06:47:07.191Z,77312
2017-06-22T06:48:07.224Z,78400
2017-06-22T06:49:07.320Z,81376
2017-06-22T06:50:07.304Z,78912
2017-06-22T06:51:07.360Z,68608
2017-06-22T06:52:07.395Z,39872
2017-06-22T06:53:07.428Z,49376
2017-06-22T06:54:07.470Z,44032
2017-06-22T06:56:07.536Z,30240
2017-06-22T06:57:06.971Z,33920
2017-06-22T06:58:07.616Z,33312
2017-06-22T06:59:07.358Z,31936
2017-06-22T07:00:07.744Z,32864
2017-06-22T07:01:07.440Z,32032
2017-06-22T07:02:07.787Z,35040
2017-06-22T07:03:22.123Z,46304
2017-06-22T07:04:07.846Z,54208
2017-06-22T07:05:07.879Z,53312
2017-06-22T07:06:07.926Z,49248
2017-06-22T07:07:07.959Z,49376
2017-06-22T07:09:07.424Z,38240
2017-06-22T07:10:07.765Z,39008
2017-06-22T07:11:07.807Z,37248
2017-06-22T07:12:22.777Z,28640
2017-06-22T07:13:07.880Z,29664
2017-06-22T07:14:22.845Z,38880
2017-06-22T07:15:07.967Z,37696
2017-06-22T07:16:08.301Z,34336
2017-06-22T07:17:08.336Z,43232
2017-06-22T07:18:08.378Z,34240
2017-06-22T07:19:08.445Z,25568
2017-06-22T07:20:08.437Z,24704
2017-06-22T07:21:08.513Z,26912
2017-06-22T07:22:08.517Z,26784
2017-06-22T07:23:08.578Z,20416
2017-06-22T07:24:08.593Z,28448
2017-06-22T07:25:08.320Z,28704
2017-06-22T07:26:08.361Z,20768
2017-06-22T07:28:23.358Z,15776
2017-06-22T07:29:08.775Z,14308
2017-06-22T07:30:08.803Z,13208
2017-06-22T07:31:08.537Z,11536
2017-06-22T07:32:08.886Z,10016
2017-06-22T07:33:23.537Z,8752
2017-06-22T07:34:23.569Z,7944
2017-06-22T07:35:23.604Z,7480
2017-06-22T07:36:08.715Z,7260
2017-06-22T07:37:09.056Z,7032
2017-06-22T07:38:09.085Z,6772
2017-06-22T07:39:09.131Z,6616
2017-06-22T07:40:23.782Z,6472
2017-06-22T07:41:23.814Z,6304
2017-06-22T07:42:08.924Z,6176
2017-06-22T07:43:08.654Z,6184
2017-06-22T07:44:23.308Z,6452
2017-06-22T07:45:09.044Z,6700
2017-06-22T07:46:09.385Z,7028
2017-06-22T07:47:08.796Z,7324
2017-06-22T07:48:09.130Z,7704
2017-06-22T07:49:09.163Z,8264
2017-06-22T07:50:09.504Z,8744
2017-06-22T07:51:09.535Z,8996
2017-06-22T07:52:09.270Z,9708
2017-06-22T07:53:23.615Z,10568
2017-06-22T07:54:09.634Z,11368
2017-06-22T07:55:09.670Z,12324
2017-06-22T07:56:24.321Z,16036
2017-06-22T07:57:09.432Z,11964
2017-06-22T07:58:09.771Z,11392
2017-06-22T07:59:09.246Z,12468
2017-06-22T08:00:24.455Z,13348
2017-06-22T08:01:09.872Z,15460
2017-06-22T08:02:09.604Z,11140
2017-06-22T08:03:09.936Z,10640
2017-06-22T08:04:09.972Z,10512
2017-06-22T08:05:09.702Z,10656
2017-06-22T08:06:10.037Z,10736
2017-06-22T08:07:10.073Z,10324
2017-06-22T08:08:10.104Z,10088
2017-06-22T08:09:10.140Z,9844
2017-06-22T08:10:10.171Z,9292
2017-06-22T08:11:10.207Z,8832
2017-06-22T08:12:09.934Z,8600
2017-06-22T08:13:10.273Z,8640
2017-06-22T08:14:10.304Z,8876
2017-06-22T08:16:10.369Z,9480
2017-06-22T08:18:10.437Z,10184
2017-06-22T08:19:10.472Z,10828
2017-06-22T08:20:10.220Z,11420
2017-06-22T08:21:10.537Z,11444
2017-06-22T08:22:10.265Z,11208
2017-06-22T08:23:24.919Z,10716
2017-06-22T08:25:25.034Z,10528
2017-06-22T08:26:25.019Z,10600
2017-06-22T08:27:10.734Z,10872
2017-06-22T08:28:10.461Z,21440
2017-06-22T08:29:10.807Z,22656
2017-06-22T08:30:10.835Z,22208
2017-06-22T08:31:10.563Z,22176
2017-06-22T08:32:10.947Z,22080
2017-06-22T08:34:10.987Z,21568
2017-06-22T08:35:10.997Z,21504
2017-06-22T08:36:10.730Z,21312
2017-06-22T08:37:10.460Z,21056
2017-06-22T08:38:11.154Z,20960
2017-06-22T08:39:25.451Z,20640
2017-06-22T08:40:11.170Z,20608
2017-06-22T08:41:25.823Z,20544
2017-06-22T08:42:11.248Z,20416
2017-06-22T08:43:11.271Z,20064
2017-06-22T08:44:11.310Z,19776
2017-06-22T08:45:11.042Z,19424
2017-06-22T08:46:11.104Z,19104
2017-06-22T08:47:25.426Z,18912
2017-06-22T08:48:11.450Z,18752
2017-06-22T08:49:11.486Z,18688
2017-06-22T08:50:11.527Z,18592
2017-06-22T08:51:11.557Z,18624
2017-06-22T08:52:11.286Z,18240
2017-06-22T08:53:11.626Z,18048
2017-06-22T08:54:11.408Z,17472
2017-06-22T08:55:11.398Z,17132
2017-06-22T08:56:26.051Z,17228
2017-06-22T08:57:11.166Z,17568
2017-06-22T08:58:11.805Z,17792
2017-06-22T08:59:11.879Z,17792
2017-06-22T09:00:26.704Z,17984
2017-06-22T09:02:11.957Z,19424
2017-06-22T09:03:26.607Z,17952
2017-06-22T09:04:12.024Z,17728
2017-06-22T09:05:11.758Z,18016
2017-06-22T09:06:12.097Z,17056
2017-06-22T09:07:12.136Z,17056
2017-06-22T09:08:12.167Z,17120
2017-06-22T09:09:26.830Z,16500
2017-06-22T09:10:11.938Z,15888
2017-06-22T09:11:11.981Z,15300
2017-06-22T09:12:12.319Z,15124
2017-06-22T09:13:26.971Z,15280
2017-06-22T09:14:12.134Z,14980
2017-06-22T09:15:27.044Z,15764
2017-06-22T09:17:12.193Z,16280
2017-06-22T09:18:12.228Z,16128
2017-06-22T09:19:27.188Z,17760
2017-06-22T09:20:12.299Z,18176
2017-06-22T09:21:12.336Z,18080
2017-06-22T09:22:12.420Z,17504
2017-06-22T09:23:12.711Z,16684
2017-06-22T09:24:11.835Z,16308
2017-06-22T09:25:12.488Z,16096
2017-06-22T09:26:12.513Z,15396
2017-06-22T09:27:12.854Z,15576
2017-06-22T09:28:12.891Z,16700
2017-06-22T09:29:27.546Z,17088
2017-06-22T09:30:12.965Z,17152
2017-06-22T09:31:27.012Z,17376
2017-06-22T09:32:13.039Z,16516
2017-06-22T09:33:13.068Z,16636
2017-06-22T09:34:13.108Z,15204
2017-06-22T09:35:27.460Z,15572
2017-06-22T09:36:12.878Z,15608
2017-06-22T09:37:13.216Z,15748
2017-06-22T09:38:12.950Z,15952
2017-06-22T09:39:13.285Z,16376
2017-06-22T09:40:13.328Z,16276
2017-06-22T09:41:13.358Z,17184
2017-06-22T09:42:13.393Z,16692
2017-06-22T09:43:13.430Z,16316
2017-06-22T09:44:13.166Z,16592
2017-06-22T09:45:13.604Z,15548
2017-06-22T09:46:13.546Z,15140
2017-06-22T09:47:13.633Z,14264
2017-06-22T09:48:28.228Z,15016
2017-06-22T09:49:13.644Z,16260
2017-06-22T09:50:28.303Z,15848
2017-06-22T09:52:13.755Z,15556
2017-06-22T09:53:13.787Z,15652
2017-06-22T09:54:13.823Z,16776
2017-06-22T09:55:13.933Z,15824
2017-06-22T09:56:28.216Z,15520
2017-06-22T09:57:13.631Z,15192
2017-06-22T09:58:13.969Z,15124
2017-06-22T09:59:14.003Z,14984
2017-06-22T10:00:14.041Z,14660
2017-06-22T10:01:13.769Z,14336
2017-06-22T10:02:13.809Z,14528
2017-06-22T10:03:14.144Z,14616
2017-06-22T10:05:13.913Z,14248
2017-06-22T10:07:13.992Z,13760
2017-06-22T10:08:14.019Z,12948
2017-06-22T10:09:14.082Z,13188
2017-06-22T10:10:14.094Z,13348
2017-06-22T10:11:14.430Z,13220
2017-06-22T10:12:14.492Z,13012
2017-06-22T10:13:14.198Z,12856
2017-06-22T10:14:14.536Z,12440
2017-06-22T10:15:14.271Z,11664
2017-06-22T10:16:14.630Z,11204
2017-06-22T10:17:14.645Z,11476
2017-06-22T10:18:14.726Z,11596
2017-06-22T10:19:14.712Z,11904
2017-06-22T10:20:14.750Z,12420
2017-06-22T10:21:14.785Z,13052
2017-06-22T10:22:29.440Z,13108
2017-06-22T10:23:14.553Z,12740
2017-06-22T10:25:14.319Z,12288
2017-06-22T10:26:14.353Z,12524
2017-06-22T10:27:14.695Z,12600
2017-06-22T10:28:15.033Z,12592
2017-06-22T10:29:15.062Z,12664
2017-06-22T10:30:29.418Z,12820
2017-06-22T10:31:14.528Z,12876
2017-06-22T10:33:29.825Z,12972
2017-06-22T10:34:15.240Z,13004
2017-06-22T10:35:29.896Z,13448
2017-06-22T10:36:15.310Z,13488
2017-06-22T10:37:15.344Z,13628
2017-06-22T10:38:30.000Z,13660
2017-06-22T10:39:15.419Z,13720
2017-06-22T10:40:15.147Z,13152
2017-06-22T10:41:15.486Z,13144
2017-06-22T10:42:15.521Z,12704
2017-06-22T10:43:15.554Z,13156
2017-06-22T10:44:15.590Z,13784
2017-06-22T10:45:15.709Z,14100
2017-06-22T10:46:30.282Z,14344
2017-06-22T10:47:29.709Z,14624
2017-06-22T10:48:15.427Z,14664
2017-06-22T10:49:15.765Z,14556
2017-06-22T10:50:30.427Z,14444
2017-06-22T10:51:15.839Z,14288
2017-06-22T10:52:15.566Z,14316
2017-06-22T10:53:15.605Z,14224
2017-06-22T10:54:30.257Z,14264
2017-06-22T10:55:15.672Z,14208
2017-06-22T10:56:15.709Z,14076
2017-06-22T10:57:16.105Z,13992
2017-06-22T10:58:16.083Z,13796
2017-06-22T10:59:16.115Z,13620
2017-06-22T11:00:15.853Z,13444
2017-06-22T11:01:16.185Z,13196
2017-06-22T11:02:15.916Z,12908
2017-06-22T11:04:16.303Z,12548
2017-06-22T11:05:16.369Z,12372
2017-06-22T11:06:16.373Z,12164
2017-06-22T11:07:16.409Z,11940
2017-06-22T11:08:16.127Z,11700
2017-06-22T11:09:16.474Z,11456
2017-06-22T11:10:31.164Z,11128
2017-06-22T11:11:16.532Z,10928
2017-06-22T11:12:16.570Z,10656
2017-06-22T11:13:16.609Z,10408
2017-06-22T11:14:16.334Z,10164
2017-06-22T11:15:16.668Z,9908
2017-06-22T11:16:16.397Z,9660
2017-06-22T11:17:16.436Z,9412
2017-06-22T11:18:16.769Z,9164
2017-06-22T11:19:16.808Z,8924
2017-06-22T11:20:16.536Z,8680
2017-06-22T11:22:16.604Z,8000
2017-06-22T11:23:16.639Z,7612
2017-06-22T11:24:17.343Z,7296
2017-06-22T11:25:31.627Z,6940
2017-06-22T11:26:17.044Z,6740
2017-06-22T11:27:17.077Z,6552
2017-06-22T11:28:16.813Z,6388
2017-06-22T11:29:16.842Z,6192
2017-06-22T11:30:16.875Z,5928
2017-06-22T11:31:16.909Z,5668
2017-06-22T11:32:16.942Z,5392
2017-06-22T11:33:16.975Z,5128
2017-06-22T11:34:31.933Z,4892
2017-06-22T11:35:31.663Z,4660
2017-06-22T11:36:17.381Z,4456
2017-06-22T11:37:17.414Z,4204
2017-06-22T11:38:17.447Z,3972
2017-06-22T11:39:17.177Z,3820
2017-06-22T11:40:16.913Z,3676
2017-06-22T11:41:16.939Z,3540
2017-06-22T11:42:16.973Z,3412
2017-06-22T11:43:17.308Z,3296
2017-06-22T11:44:17.341Z,3200
2017-06-22T11:45:17.680Z,3120
2017-06-22T11:46:17.111Z,3052
2017-06-22T11:47:17.800Z,2996
2017-06-22T11:48:32.401Z,2916
2017-06-22T11:49:17.507Z,2860
2017-06-22T11:50:17.241Z,2780
2017-06-22T11:51:31.889Z,2688
2017-06-22T11:52:17.611Z,2652
2017-06-22T11:53:17.336Z,2576
2017-06-22T11:55:18.011Z,2452
2017-06-22T11:56:18.040Z,2384
2017-06-22T11:57:32.694Z,2304
2017-06-22T11:58:17.811Z,2264
2017-06-22T11:59:18.137Z,2200
2017-06-22T12:00:18.173Z,2148
2017-06-22T12:01:17.902Z,2084
2017-06-22T12:02:17.934Z,2016
2017-06-22T12:03:17.969Z,1956
2017-06-22T12:04:17.997Z,1904
2017-06-22T12:05:32.956Z,1832
2017-06-22T12:06:18.367Z,1788
2017-06-22T12:07:18.399Z,1740
2017-06-22T12:08:18.434Z,1676
2017-06-22T12:09:18.468Z,1616
2017-06-22T12:10:18.498Z,1548
2017-06-22T12:11:18.527Z,1456
2017-06-22T12:12:18.559Z,1368
2017-06-22T12:13:32.910Z,1264
2017-06-22T12:14:18.624Z,1200
2017-06-22T12:15:18.658Z,1144
2017-06-22T12:16:18.386Z,1104
2017-06-22T12:17:18.421Z,1084
2017-06-22T12:18:18.448Z,1068
2017-06-22T12:19:32.814Z,1068
2017-06-22T12:20:17.910Z,1076
2017-06-22T12:21:18.545Z,1076
2017-06-22T12:22:18.274Z,1064
2017-06-22T12:23:18.659Z,1036
2017-06-22T12:24:18.641Z,1004
2017-06-22T12:25:18.974Z,976
2017-06-22T12:26:33.320Z,992
2017-06-22T12:27:19.038Z,1012
2017-06-22T12:28:19.068Z,1016
2017-06-22T12:29:33.718Z,1012
2017-06-22T12:30:19.130Z,1000
2017-06-22T12:32:19.198Z,940
2017-06-22T12:33:19.225Z,896
2017-06-22T12:34:19.256Z,848
2017-06-22T12:35:19.291Z,840
2017-06-22T12:36:19.319Z,832
2017-06-22T12:37:19.357Z,776
2017-06-22T12:38:19.379Z,716
2017-06-22T12:39:19.413Z,652
2017-06-22T12:40:34.061Z,556
2017-06-22T12:41:34.091Z,496
2017-06-22T12:43:19.543Z,388
2017-06-22T12:44:19.563Z,348
2017-06-22T12:45:33.911Z,316
2017-06-22T12:46:19.628Z,316
2017-06-22T12:47:19.659Z,356
2017-06-22T12:48:19.688Z,412
2017-06-22T12:49:19.718Z,436
2017-06-22T12:50:19.748Z,412
2017-06-22T12:51:19.776Z,396
2017-06-22T12:52:19.806Z,388
2017-06-22T12:53:19.856Z,384
2017-06-22T12:54:19.915Z,372
2017-06-22T12:55:19.896Z,348
2017-06-22T12:56:19.926Z,344
2017-06-22T12:57:19.953Z,340
2017-06-22T12:59:19.710Z,328
2017-06-22T13:00:34.671Z,324
2017-06-22T13:02:20.105Z,312
2017-06-22T13:04:20.158Z,320
2017-06-22T13:05:19.886Z,328
2017-06-22T13:06:20.222Z,332
2017-06-22T13:07:19.639Z,332
2017-06-22T13:08:20.271Z,336
2017-06-22T13:09:20.298Z,336
2017-06-22T13:10:20.330Z,340
2017-06-22T13:11:34.673Z,340
2017-06-22T13:12:20.392Z,344
2017-06-22T13:13:34.727Z,372
2017-06-22T13:14:20.441Z,400
2017-06-22T13:15:20.471Z,432
2017-06-22T13:16:19.889Z,452
2017-06-22T13:18:20.270Z,500
2017-06-22T13:19:20.274Z,520
2017-06-22T13:20:20.606Z,524
2017-06-22T13:21:20.632Z,528
2017-06-22T13:22:20.662Z,528
2017-06-22T13:23:20.693Z,536
2017-06-22T13:24:20.718Z,536
2017-06-22T13:25:20.439Z,512
2017-06-22T13:26:20.772Z,524
2017-06-22T13:27:20.799Z,552
2017-06-22T13:28:35.446Z,584
2017-06-22T13:29:35.473Z,624
2017-06-22T13:30:20.884Z,652
2017-06-22T13:31:20.606Z,664
2017-06-22T13:32:35.554Z,648
2017-06-22T13:33:20.965Z,652
2017-06-22T13:34:20.991Z,680
2017-06-22T13:35:21.015Z,692
2017-06-22T13:36:21.047Z,716
2017-06-22T13:37:21.073Z,744
2017-06-22T13:38:21.099Z,756
2017-06-22T13:39:20.821Z,756
2017-06-22T13:40:21.155Z,748
2017-06-22T13:43:21.233Z,756
2017-06-22T13:44:21.262Z,756
2017-06-22T13:45:21.293Z,752
2017-06-22T13:46:21.314Z,744
2017-06-22T13:47:21.340Z,740
2017-06-22T13:48:35.988Z,740
2017-06-22T13:49:21.392Z,752
2017-06-22T13:50:21.469Z,768
2017-06-22T13:51:21.448Z,784
2017-06-22T13:52:21.474Z,808
2017-06-22T13:53:21.502Z,824
2017-06-22T13:54:21.532Z,836
2017-06-22T13:55:21.559Z,852
2017-06-22T13:56:21.582Z,868
2017-06-22T13:57:21.304Z,888
2017-06-22T13:58:36.252Z,920
2017-06-22T13:59:36.277Z,948
2017-06-22T14:00:21.835Z,976
2017-06-22T14:01:21.826Z,1008
2017-06-22T14:02:21.789Z,1048
2017-06-22T14:03:21.764Z,1092
2017-06-22T14:06:21.894Z,1256
2017-06-22T14:07:21.873Z,1328
2017-06-22T14:08:21.896Z,1412
2017-06-22T14:09:21.317Z,1500
2017-06-22T14:10:21.953Z,1588
2017-06-22T14:11:21.999Z,1668
2017-06-22T14:12:22.002Z,1744
2017-06-22T14:13:36.653Z,1852
2017-06-22T14:14:22.056Z,1912
2017-06-22T14:15:22.085Z,2000
2017-06-22T14:16:36.728Z,2120
2017-06-22T14:17:36.755Z,2220
2017-06-22T14:18:36.783Z,2328
2017-06-22T14:19:21.886Z,2416
2017-06-22T14:20:36.836Z,2576
2017-06-22T14:21:22.246Z,2696
2017-06-22T14:22:22.274Z,2876
2017-06-22T14:23:22.000Z,3076
2017-06-22T14:24:22.022Z,3312
2017-06-22T14:25:22.351Z,3580